sensor_id;sensor_type;location;lat;lon;timestamp;P1;P2;P0
49343;PMS5003;35210;41.606;-87.602;2022-12-18T00:01:26;15.60;15.00;7.00
49343;PMS5003;35210;41.606;-87.602;2022-12-18T00:03:58;28.00;22.80;10.80
49343;PMS5003;35210;41.606;-87.602;2022-12-18T00:06:28;18.40;16.20;9.80
49343;PMS5003;35210;41.606;-87.602;2022-12-18T00:08:58;21.60;17.20;9.40
49343;PMS5003;35210;41.606;-87.602;2022-12-18T00:11:27;17.40;14.60;9.20
49343;PMS5003;35210;41.606;-87.602;2022-12-18T00:13:57;21.60;18.00;8.60
49343;PMS5003;35210;41.606;-87.602;2022-12-18T00:16:29;21.40;20.80;12.40
49343;PMS5003;35210;41.606;-87.602;2022-12-18T00:19:00;30.60;21.00;10.40
49343;PMS5003;35210;41.606;-87.602;2022-12-18T00:21:29;28.40;21.00;11.60
49343;PMS5003;35210;41.606;-87.602;2022-12-18T00:23:58;19.20;16.80;10.00
49343;PMS5003;35210;41.606;-87.602;2022-12-18T00:26:27;22.80;17.60;9.60
49343;PMS5003;35210;41.606;-87.602;2022-12-18T00:28:58;21.20;17.60;9.40
49343;PMS5003;35210;41.606;-87.602;2022-12-18T00:31:26;16.40;12.00;6.00
49343;PMS5003;35210;41.606;-87.602;2022-12-18T00:33:57;18.60;15.20;6.80
49343;PMS5003;35210;41.606;-87.602;2022-12-18T00:36:25;23.20;16.40;9.00
49343;PMS5003;35210;41.606;-87.602;2022-12-18T00:38:55;19.00;17.20;9.00
49343;PMS5003;35210;41.606;-87.602;2022-12-18T00:41:24;22.00;18.20;9.20
49343;PMS5003;35210;41.606;-87.602;2022-12-18T00:44:09;17.20;15.40;7.00
49343;PMS5003;35210;41.606;-87.602;2022-12-18T00:46:42;23.80;19.80;10.00
49343;PMS5003;35210;41.606;-87.602;2022-12-18T00:49:10;20.20;20.20;9.60
49343;PMS5003;35210;41.606;-87.602;2022-12-18T00:51:40;26.20;23.60;10.00
49343;PMS5003;35210;41.606;-87.602;2022-12-18T00:54:08;16.80;11.20;6.00
49343;PMS5003;35210;41.606;-87.602;2022-12-18T00:56:37;25.80;20.20;9.80
49343;PMS5003;35210;41.606;-87.602;2022-12-18T00:59:06;22.80;21.80;13.00
49343;PMS5003;35210;41.606;-87.602;2022-12-18T01:01:35;23.20;21.20;9.00
49343;PMS5003;35210;41.606;-87.602;2022-12-18T01:04:06;14.40;9.80;3.00
49343;PMS5003;35210;41.606;-87.602;2022-12-18T01:06:35;26.40;18.40;9.00
49343;PMS5003;35210;41.606;-87.602;2022-12-18T01:09:04;26.40;24.00;13.00
49343;PMS5003;35210;41.606;-87.602;2022-12-18T01:11:32;24.20;23.20;11.60
49343;PMS5003;35210;41.606;-87.602;2022-12-18T01:14:00;21.60;18.60;10.20
49343;PMS5003;35210;41.606;-87.602;2022-12-18T01:16:28;22.20;18.40;10.00
49343;PMS5003;35210;41.606;-87.602;2022-12-18T01:18:57;16.80;9.60;6.00
49343;PMS5003;35210;41.606;-87.602;2022-12-18T01:21:27;25.60;20.80;9.80
49343;PMS5003;35210;41.606;-87.602;2022-12-18T01:23:56;21.80;18.00;9.20
49343;PMS5003;35210;41.606;-87.602;2022-12-18T01:26:24;23.20;20.00;10.00
49343;PMS5003;35210;41.606;-87.602;2022-12-18T01:28:55;24.40;19.60;9.40
49343;PMS5003;35210;41.606;-87.602;2022-12-18T01:31:24;25.00;21.00;12.40
49343;PMS5003;35210;41.606;-87.602;2022-12-18T01:33:53;25.20;18.20;10.40
49343;PMS5003;35210;41.606;-87.602;2022-12-18T01:36:23;18.20;13.40;9.00
49343;PMS5003;35210;41.606;-87.602;2022-12-18T01:38:56;15.00;14.60;9.40
49343;PMS5003;35210;41.606;-87.602;2022-12-18T01:41:27;16.60;15.40;7.80
49343;PMS5003;35210;41.606;-87.602;2022-12-18T01:47:26;16.80;14.20;6.80
49343;PMS5003;35210;41.606;-87.602;2022-12-18T01:49:58;17.40;12.80;7.00
49343;PMS5003;35210;41.606;-87.602;2022-12-18T01:52:29;19.20;15.40;7.00
49343;PMS5003;35210;41.606;-87.602;2022-12-18T01:55:02;18.20;13.00;8.20
49343;PMS5003;35210;41.606;-87.602;2022-12-18T01:57:32;16.60;15.00;8.60
49343;PMS5003;35210;41.606;-87.602;2022-12-18T02:00:01;17.80;12.80;6.00
49343;PMS5003;35210;41.606;-87.602;2022-12-18T02:02:32;16.00;15.00;6.20
49343;PMS5003;35210;41.606;-87.602;2022-12-18T02:05:00;16.00;15.60;8.20
49343;PMS5003;35210;41.606;-87.602;2022-12-18T02:07:32;13.80;9.20;7.00
49343;PMS5003;35210;41.606;-87.602;2022-12-18T02:10:11;17.40;16.40;9.00
49343;PMS5003;35210;41.606;-87.602;2022-12-18T02:12:48;14.60;10.40;7.00
49343;PMS5003;35210;41.606;-87.602;2022-12-18T02:15:24;18.20;16.00;7.40
49343;PMS5003;35210;41.606;-87.602;2022-12-18T02:18:03;13.00;13.00;7.00
49343;PMS5003;35210;41.606;-87.602;2022-12-18T02:20:36;11.00;9.00;6.00
49343;PMS5003;35210;41.606;-87.602;2022-12-18T02:23:12;12.40;12.00;7.00
49343;PMS5003;35210;41.606;-87.602;2022-12-18T02:28:55;14.20;12.80;9.00
49343;PMS5003;35210;41.606;-87.602;2022-12-18T02:31:28;12.20;9.60;6.00
49343;PMS5003;35210;41.606;-87.602;2022-12-18T02:34:05;11.80;9.80;6.00
49343;PMS5003;35210;41.606;-87.602;2022-12-18T02:36:36;10.20;10.00;5.40
49343;PMS5003;35210;41.606;-87.602;2022-12-18T02:39:09;12.20;9.60;6.40
49343;PMS5003;35210;41.606;-87.602;2022-12-18T02:41:41;13.00;13.00;7.00
49343;PMS5003;35210;41.606;-87.602;2022-12-18T02:44:09;6.40;6.40;3.00
49343;PMS5003;35210;41.606;-87.602;2022-12-18T02:46:40;10.20;9.20;6.00
49343;PMS5003;35210;41.606;-87.602;2022-12-18T02:49:12;7.60;7.00;4.80
49343;PMS5003;35210;41.606;-87.602;2022-12-18T02:51:52;9.60;7.00;3.60
49343;PMS5003;35210;41.606;-87.602;2022-12-18T02:54:30;6.20;6.20;4.00
49343;PMS5003;35210;41.606;-87.602;2022-12-18T02:57:18;14.40;7.40;4.00
49343;PMS5003;35210;41.606;-87.602;2022-12-18T02:59:55;10.00;7.80;3.40
49343;PMS5003;35210;41.606;-87.602;2022-12-18T03:02:27;7.00;5.60;3.00
49343;PMS5003;35210;41.606;-87.602;2022-12-18T03:05:05;8.60;8.60;4.80
49343;PMS5003;35210;41.606;-87.602;2022-12-18T03:07:42;9.20;9.20;3.80
49343;PMS5003;35210;41.606;-87.602;2022-12-18T03:10:16;12.00;9.80;3.80
49343;PMS5003;35210;41.606;-87.602;2022-12-18T03:12:54;7.00;7.00;3.00
49343;PMS5003;35210;41.606;-87.602;2022-12-18T03:15:27;8.20;4.80;3.20
49343;PMS5003;35210;41.606;-87.602;2022-12-18T03:17:59;4.40;4.40;3.00
49343;PMS5003;35210;41.606;-87.602;2022-12-18T03:20:32;5.60;5.60;3.00
49343;PMS5003;35210;41.606;-87.602;2022-12-18T03:23:08;5.20;5.20;3.00
49343;PMS5003;35210;41.606;-87.602;2022-12-18T03:25:39;4.80;4.40;1.00
49343;PMS5003;35210;41.606;-87.602;2022-12-18T03:28:15;3.80;3.00;1.00
49343;PMS5003;35210;41.606;-87.602;2022-12-18T03:30:50;7.00;6.00;1.00
49343;PMS5003;35210;41.606;-87.602;2022-12-18T03:33:25;1.00;1.00;0.00
49343;PMS5003;35210;41.606;-87.602;2022-12-18T03:36:00;6.20;4.80;3.00
49343;PMS5003;35210;41.606;-87.602;2022-12-18T03:38:30;1.60;1.00;0.80
49343;PMS5003;35210;41.606;-87.602;2022-12-18T03:40:59;5.60;5.60;3.00
49343;PMS5003;35210;41.606;-87.602;2022-12-18T03:43:42;4.40;3.20;3.00
49343;PMS5003;35210;41.606;-87.602;2022-12-18T03:46:21;3.00;3.00;0.00
49343;PMS5003;35210;41.606;-87.602;2022-12-18T03:48:58;3.80;3.80;2.60
49343;PMS5003;35210;41.606;-87.602;2022-12-18T03:51:35;6.00;3.60;1.80
49343;PMS5003;35210;41.606;-87.602;2022-12-18T03:54:09;2.60;2.60;0.80
49343;PMS5003;35210;41.606;-87.602;2022-12-18T03:56:43;3.80;3.40;1.40
49343;PMS5003;35210;41.606;-87.602;2022-12-18T03:59:18;4.00;4.00;1.00
49343;PMS5003;35210;41.606;-87.602;2022-12-18T04:01:47;6.60;4.00;0.80
49343;PMS5003;35210;41.606;-87.602;2022-12-18T04:04:21;8.60;4.40;3.00
49343;PMS5003;35210;41.606;-87.602;2022-12-18T04:06:52;7.00;4.00;2.60
49343;PMS5003;35210;41.606;-87.602;2022-12-18T04:09:22;5.60;4.00;1.00
49343;PMS5003;35210;41.606;-87.602;2022-12-18T04:11:51;6.00;4.00;2.20
49343;PMS5003;35210;41.606;-87.602;2022-12-18T04:14:29;3.00;3.00;0.60
49343;PMS5003;35210;41.606;-87.602;2022-12-18T04:17:01;4.00;4.00;3.00
49343;PMS5003;35210;41.606;-87.602;2022-12-18T04:19:30;5.20;4.80;2.20
49343;PMS5003;35210;41.606;-87.602;2022-12-18T04:21:59;7.40;4.80;3.00
49343;PMS5003;35210;41.606;-87.602;2022-12-18T04:24:28;6.20;3.60;1.80
49343;PMS5003;35210;41.606;-87.602;2022-12-18T04:26:56;4.80;3.80;2.60
49343;PMS5003;35210;41.606;-87.602;2022-12-18T04:29:24;5.20;5.20;3.00
49343;PMS5003;35210;41.606;-87.602;2022-12-18T04:31:55;3.40;3.40;2.60
49343;PMS5003;35210;41.606;-87.602;2022-12-18T04:34:25;7.60;5.40;3.00
49343;PMS5003;35210;41.606;-87.602;2022-12-18T04:36:54;3.20;3.00;1.00
49343;PMS5003;35210;41.606;-87.602;2022-12-18T04:39:22;4.80;3.40;1.00
49343;PMS5003;35210;41.606;-87.602;2022-12-18T04:41:51;5.00;3.00;1.00
49343;PMS5003;35210;41.606;-87.602;2022-12-18T04:44:19;3.60;3.60;1.40
49343;PMS5003;35210;41.606;-87.602;2022-12-18T04:46:49;4.20;3.00;1.00
49343;PMS5003;35210;41.606;-87.602;2022-12-18T04:49:19;7.80;4.00;1.80
49343;PMS5003;35210;41.606;-87.602;2022-12-18T04:51:49;4.40;4.40;2.60
49343;PMS5003;35210;41.606;-87.602;2022-12-18T04:54:18;5.60;5.60;2.20
49343;PMS5003;35210;41.606;-87.602;2022-12-18T04:56:47;4.00;4.00;3.00
49343;PMS5003;35210;41.606;-87.602;2022-12-18T04:59:15;12.00;5.60;3.00
49343;PMS5003;35210;41.606;-87.602;2022-12-18T05:01:44;5.60;3.80;3.00
49343;PMS5003;35210;41.606;-87.602;2022-12-18T05:04:13;5.60;5.60;3.00
49343;PMS5003;35210;41.606;-87.602;2022-12-18T05:06:43;5.60;3.80;2.60
49343;PMS5003;35210;41.606;-87.602;2022-12-18T05:09:13;7.00;3.40;3.00
49343;PMS5003;35210;41.606;-87.602;2022-12-18T05:11:42;5.40;3.60;3.00
49343;PMS5003;35210;41.606;-87.602;2022-12-18T05:14:12;4.40;3.00;1.00
49343;PMS5003;35210;41.606;-87.602;2022-12-18T05:16:41;0.80;0.80;0.00
49343;PMS5003;35210;41.606;-87.602;2022-12-18T05:19:09;5.60;3.60;1.40
49343;PMS5003;35210;41.606;-87.602;2022-12-18T05:21:38;6.60;6.60;3.00
49343;PMS5003;35210;41.606;-87.602;2022-12-18T05:24:11;5.60;3.20;2.20
49343;PMS5003;35210;41.606;-87.602;2022-12-18T05:26:40;4.80;4.80;3.00
49343;PMS5003;35210;41.606;-87.602;2022-12-18T05:29:08;5.20;3.20;2.20
49343;PMS5003;35210;41.606;-87.602;2022-12-18T05:31:37;5.20;4.00;1.40
49343;PMS5003;35210;41.606;-87.602;2022-12-18T05:34:06;4.00;4.00;1.00
49343;PMS5003;35210;41.606;-87.602;2022-12-18T05:36:38;4.00;4.00;1.00
49343;PMS5003;35210;41.606;-87.602;2022-12-18T05:39:06;4.40;4.00;3.00
49343;PMS5003;35210;41.606;-87.602;2022-12-18T05:41:39;6.40;4.00;1.80
49343;PMS5003;35210;41.606;-87.602;2022-12-18T05:44:07;5.20;5.20;2.60
49343;PMS5003;35210;41.606;-87.602;2022-12-18T05:46:37;3.00;3.00;1.00
49343;PMS5003;35210;41.606;-87.602;2022-12-18T05:49:05;3.00;3.00;1.00
49343;PMS5003;35210;41.606;-87.602;2022-12-18T05:51:35;3.00;3.00;1.40
49343;PMS5003;35210;41.606;-87.602;2022-12-18T05:54:05;5.20;4.80;1.00
49343;PMS5003;35210;41.606;-87.602;2022-12-18T05:56:33;4.80;3.20;1.00
49343;PMS5003;35210;41.606;-87.602;2022-12-18T05:59:04;3.00;3.00;1.00
49343;PMS5003;35210;41.606;-87.602;2022-12-18T06:01:32;5.60;5.60;3.00
49343;PMS5003;35210;41.606;-87.602;2022-12-18T06:04:01;4.80;3.00;1.00
49343;PMS5003;35210;41.606;-87.602;2022-12-18T06:06:29;5.40;4.40;3.00
49343;PMS5003;35210;41.606;-87.602;2022-12-18T06:08:58;5.00;3.00;0.00
49343;PMS5003;35210;41.606;-87.602;2022-12-18T06:11:27;4.00;4.00;2.20
49343;PMS5003;35210;41.606;-87.602;2022-12-18T06:13:58;3.40;3.40;3.00
49343;PMS5003;35210;41.606;-87.602;2022-12-18T06:16:27;8.00;5.60;2.20
49343;PMS5003;35210;41.606;-87.602;2022-12-18T06:18:56;4.00;4.00;3.00
49343;PMS5003;35210;41.606;-87.602;2022-12-18T06:21:26;4.80;4.80;3.00
49343;PMS5003;35210;41.606;-87.602;2022-12-18T06:23:56;4.00;3.00;0.00
49343;PMS5003;35210;41.606;-87.602;2022-12-18T06:26:25;7.00;5.20;3.20
49343;PMS5003;35210;41.606;-87.602;2022-12-18T06:28:56;6.20;4.00;1.40
49343;PMS5003;35210;41.606;-87.602;2022-12-18T06:31:26;5.60;4.00;3.00
49343;PMS5003;35210;41.606;-87.602;2022-12-18T06:33:55;9.20;4.80;2.60
49343;PMS5003;35210;41.606;-87.602;2022-12-18T06:36:23;5.40;3.40;1.00
49343;PMS5003;35210;41.606;-87.602;2022-12-18T06:38:52;4.00;3.20;3.00
49343;PMS5003;35210;41.606;-87.602;2022-12-18T06:41:21;3.00;3.00;2.60
49343;PMS5003;35210;41.606;-87.602;2022-12-18T06:43:51;4.00;3.00;0.00
49343;PMS5003;35210;41.606;-87.602;2022-12-18T06:46:28;4.80;3.40;1.00
49343;PMS5003;35210;41.606;-87.602;2022-12-18T06:48:58;12.20;4.00;3.00
49343;PMS5003;35210;41.606;-87.602;2022-12-18T06:51:27;6.20;3.20;2.60
49343;PMS5003;35210;41.606;-87.602;2022-12-18T06:53:55;7.20;4.40;1.40
49343;PMS5003;35210;41.606;-87.602;2022-12-18T06:56:24;6.00;6.00;3.40
49343;PMS5003;35210;41.606;-87.602;2022-12-18T06:58:53;3.80;3.80;1.00
49343;PMS5003;35210;41.606;-87.602;2022-12-18T07:01:23;3.40;3.40;1.00
49343;PMS5003;35210;41.606;-87.602;2022-12-18T07:03:55;6.60;4.00;3.00
49343;PMS5003;35210;41.606;-87.602;2022-12-18T07:06:25;3.80;3.80;3.00
49343;PMS5003;35210;41.606;-87.602;2022-12-18T07:08:55;6.20;3.40;2.60
49343;PMS5003;35210;41.606;-87.602;2022-12-18T07:11:23;4.80;4.80;1.00
49343;PMS5003;35210;41.606;-87.602;2022-12-18T07:13:51;5.20;4.00;2.60
49343;PMS5003;35210;41.606;-87.602;2022-12-18T07:16:21;8.60;4.80;3.00
49343;PMS5003;35210;41.606;-87.602;2022-12-18T07:18:51;4.60;1.00;0.00
49343;PMS5003;35210;41.606;-87.602;2022-12-18T07:21:23;6.00;3.60;1.40
49343;PMS5003;35210;41.606;-87.602;2022-12-18T07:23:53;6.00;6.00;3.00
49343;PMS5003;35210;41.606;-87.602;2022-12-18T07:26:23;5.80;4.80;2.20
49343;PMS5003;35210;41.606;-87.602;2022-12-18T07:28:53;6.20;4.00;3.00
49343;PMS5003;35210;41.606;-87.602;2022-12-18T07:31:25;3.40;2.20;1.00
49343;PMS5003;35210;41.606;-87.602;2022-12-18T07:33:53;3.40;3.40;1.80
49343;PMS5003;35210;41.606;-87.602;2022-12-18T07:36:22;6.20;3.80;2.20
49343;PMS5003;35210;41.606;-87.602;2022-12-18T07:38:50;3.00;3.00;1.00
49343;PMS5003;35210;41.606;-87.602;2022-12-18T07:41:19;4.40;3.00;1.00
49343;PMS5003;35210;41.606;-87.602;2022-12-18T07:43:48;5.00;3.20;0.00
49343;PMS5003;35210;41.606;-87.602;2022-12-18T07:46:16;6.00;6.00;3.00
49343;PMS5003;35210;41.606;-87.602;2022-12-18T07:48:46;3.40;3.40;1.00
49343;PMS5003;35210;41.606;-87.602;2022-12-18T07:51:15;9.00;6.00;3.00
49343;PMS5003;35210;41.606;-87.602;2022-12-18T07:53:43;4.40;4.40;2.20
49343;PMS5003;35210;41.606;-87.602;2022-12-18T07:56:12;6.00;3.00;1.00
49343;PMS5003;35210;41.606;-87.602;2022-12-18T07:58:40;3.20;3.20;1.80
49343;PMS5003;35210;41.606;-87.602;2022-12-18T08:01:10;4.00;4.00;3.00
49343;PMS5003;35210;41.606;-87.602;2022-12-18T08:03:39;4.00;4.00;3.00
49343;PMS5003;35210;41.606;-87.602;2022-12-18T08:06:10;3.60;3.00;1.00
49343;PMS5003;35210;41.606;-87.602;2022-12-18T08:08:38;3.80;3.60;2.20
49343;PMS5003;35210;41.606;-87.602;2022-12-18T08:11:07;4.00;4.00;1.80
49343;PMS5003;35210;41.606;-87.602;2022-12-18T08:13:36;4.00;2.20;1.00
49343;PMS5003;35210;41.606;-87.602;2022-12-18T08:16:05;3.80;3.20;1.00
49343;PMS5003;35210;41.606;-87.602;2022-12-18T08:18:37;1.00;1.00;0.60
49343;PMS5003;35210;41.606;-87.602;2022-12-18T08:21:10;3.00;1.00;0.60
49343;PMS5003;35210;41.606;-87.602;2022-12-18T08:23:40;5.60;4.00;3.00
49343;PMS5003;35210;41.606;-87.602;2022-12-18T08:26:10;3.00;3.00;1.00
49343;PMS5003;35210;41.606;-87.602;2022-12-18T08:28:39;5.60;1.80;0.40
49343;PMS5003;35210;41.606;-87.602;2022-12-18T08:31:09;4.00;4.00;1.00
49343;PMS5003;35210;41.606;-87.602;2022-12-18T08:33:40;3.00;3.00;1.00
49343;PMS5003;35210;41.606;-87.602;2022-12-18T08:36:11;4.20;4.20;1.00
49343;PMS5003;35210;41.606;-87.602;2022-12-18T08:38:40;3.40;3.00;1.00
49343;PMS5003;35210;41.606;-87.602;2022-12-18T08:41:11;3.00;2.60;1.00
49343;PMS5003;35210;41.606;-87.602;2022-12-18T08:43:40;1.40;1.40;0.00
49343;PMS5003;35210;41.606;-87.602;2022-12-18T08:46:26;3.00;1.00;0.00
49343;PMS5003;35210;41.606;-87.602;2022-12-18T08:48:59;5.20;3.00;1.80
49343;PMS5003;35210;41.606;-87.602;2022-12-18T08:51:31;4.80;4.00;1.00
49343;PMS5003;35210;41.606;-87.602;2022-12-18T08:54:00;6.00;3.80;1.00
49343;PMS5003;35210;41.606;-87.602;2022-12-18T08:56:29;3.60;3.60;1.80
49343;PMS5003;35210;41.606;-87.602;2022-12-18T08:58:58;3.60;3.60;1.40
49343;PMS5003;35210;41.606;-87.602;2022-12-18T09:01:27;6.00;3.20;1.00
49343;PMS5003;35210;41.606;-87.602;2022-12-18T09:03:56;6.00;3.00;1.00
49343;PMS5003;35210;41.606;-87.602;2022-12-18T09:06:26;4.00;4.00;1.00
49343;PMS5003;35210;41.606;-87.602;2022-12-18T09:08:57;1.80;1.80;0.20
49343;PMS5003;35210;41.606;-87.602;2022-12-18T09:11:27;6.00;4.40;1.00
49343;PMS5003;35210;41.606;-87.602;2022-12-18T09:13:56;4.00;4.00;1.00
49343;PMS5003;35210;41.606;-87.602;2022-12-18T09:16:27;5.60;3.60;1.00
49343;PMS5003;35210;41.606;-87.602;2022-12-18T09:18:57;4.00;4.00;3.40
49343;PMS5003;35210;41.606;-87.602;2022-12-18T09:21:28;3.60;3.00;0.60
49343;PMS5003;35210;41.606;-87.602;2022-12-18T09:23:59;6.40;3.20;2.20
49343;PMS5003;35210;41.606;-87.602;2022-12-18T09:26:28;4.40;4.00;1.00
49343;PMS5003;35210;41.606;-87.602;2022-12-18T09:28:57;4.80;3.80;1.40
49343;PMS5003;35210;41.606;-87.602;2022-12-18T09:31:26;3.20;3.20;1.00
49343;PMS5003;35210;41.606;-87.602;2022-12-18T09:33:55;3.80;3.80;1.00
49343;PMS5003;35210;41.606;-87.602;2022-12-18T09:36:24;1.40;1.40;1.00
49343;PMS5003;35210;41.606;-87.602;2022-12-18T09:38:54;3.40;3.40;1.00
49343;PMS5003;35210;41.606;-87.602;2022-12-18T09:41:32;4.00;4.00;1.00
49343;PMS5003;35210;41.606;-87.602;2022-12-18T09:44:11;8.00;4.40;1.00
49343;PMS5003;35210;41.606;-87.602;2022-12-18T09:46:46;1.40;0.20;0.00
49343;PMS5003;35210;41.606;-87.602;2022-12-18T09:49:21;3.20;1.80;1.00
49343;PMS5003;35210;41.606;-87.602;2022-12-18T09:51:55;4.40;4.40;1.00
49343;PMS5003;35210;41.606;-87.602;2022-12-18T09:54:30;4.40;3.00;1.00
49343;PMS5003;35210;41.606;-87.602;2022-12-18T09:57:03;1.80;1.00;0.20
49343;PMS5003;35210;41.606;-87.602;2022-12-18T09:59:34;5.20;2.60;0.60
49343;PMS5003;35210;41.606;-87.602;2022-12-18T10:02:12;4.00;3.00;1.00
49343;PMS5003;35210;41.606;-87.602;2022-12-18T10:04:44;3.80;3.00;1.00
49343;PMS5003;35210;41.606;-87.602;2022-12-18T10:07:22;4.00;2.20;1.00
49343;PMS5003;35210;41.606;-87.602;2022-12-18T10:10:00;5.20;3.40;1.00
49343;PMS5003;35210;41.606;-87.602;2022-12-18T10:12:38;4.40;3.20;1.00
49343;PMS5003;35210;41.606;-87.602;2022-12-18T10:15:13;4.80;3.80;2.60
49343;PMS5003;35210;41.606;-87.602;2022-12-18T10:17:50;6.00;4.00;1.00
49343;PMS5003;35210;41.606;-87.602;2022-12-18T10:20:27;5.20;5.20;1.00
49343;PMS5003;35210;41.606;-87.602;2022-12-18T10:23:02;4.00;4.00;2.60
49343;PMS5003;35210;41.606;-87.602;2022-12-18T10:25:42;1.00;1.00;0.60
49343;PMS5003;35210;41.606;-87.602;2022-12-18T10:28:19;4.00;3.40;1.80
49343;PMS5003;35210;41.606;-87.602;2022-12-18T10:30:49;3.20;0.40;0.00
49343;PMS5003;35210;41.606;-87.602;2022-12-18T10:33:18;6.00;1.40;1.00
49343;PMS5003;35210;41.606;-87.602;2022-12-18T10:35:53;3.00;3.00;1.00
49343;PMS5003;35210;41.606;-87.602;2022-12-18T10:38:23;3.00;3.00;1.00
49343;PMS5003;35210;41.606;-87.602;2022-12-18T10:40:53;1.80;1.80;0.20
49343;PMS5003;35210;41.606;-87.602;2022-12-18T10:43:26;4.00;4.00;3.00
49343;PMS5003;35210;41.606;-87.602;2022-12-18T10:46:04;1.00;1.00;0.00
49343;PMS5003;35210;41.606;-87.602;2022-12-18T10:48:47;4.40;4.00;3.00
49343;PMS5003;35210;41.606;-87.602;2022-12-18T10:51:20;3.80;3.00;1.00
49343;PMS5003;35210;41.606;-87.602;2022-12-18T10:53:52;3.80;3.00;1.40
49343;PMS5003;35210;41.606;-87.602;2022-12-18T10:56:23;2.60;2.60;1.00
49343;PMS5003;35210;41.606;-87.602;2022-12-18T10:58:59;4.00;4.00;1.00
49343;PMS5003;35210;41.606;-87.602;2022-12-18T11:01:31;3.00;3.00;1.00
49343;PMS5003;35210;41.606;-87.602;2022-12-18T11:04:16;2.20;2.20;1.00
49343;PMS5003;35210;41.606;-87.602;2022-12-18T11:06:53;3.40;3.40;0.80
49343;PMS5003;35210;41.606;-87.602;2022-12-18T11:09:24;4.80;3.40;1.00
49343;PMS5003;35210;41.606;-87.602;2022-12-18T11:11:54;5.60;2.60;1.00
49343;PMS5003;35210;41.606;-87.602;2022-12-18T11:14:26;3.00;3.00;2.60
49343;PMS5003;35210;41.606;-87.602;2022-12-18T11:16:58;5.60;2.20;1.00
49343;PMS5003;35210;41.606;-87.602;2022-12-18T11:19:31;3.80;3.00;1.00
49343;PMS5003;35210;41.606;-87.602;2022-12-18T11:22:03;1.00;1.00;1.00
49343;PMS5003;35210;41.606;-87.602;2022-12-18T11:24:52;6.00;1.00;0.40
49343;PMS5003;35210;41.606;-87.602;2022-12-18T11:27:22;1.80;1.00;0.00
49343;PMS5003;35210;41.606;-87.602;2022-12-18T11:29:52;3.00;3.00;1.40
49343;PMS5003;35210;41.606;-87.602;2022-12-18T11:32:34;2.60;2.60;1.00
49343;PMS5003;35210;41.606;-87.602;2022-12-18T11:35:11;5.20;1.00;0.00
49343;PMS5003;35210;41.606;-87.602;2022-12-18T11:37:46;5.00;2.20;1.00
49343;PMS5003;35210;41.606;-87.602;2022-12-18T11:40:19;1.80;1.80;1.00
49343;PMS5003;35210;41.606;-87.602;2022-12-18T11:42:55;7.40;1.80;1.00
49343;PMS5003;35210;41.606;-87.602;2022-12-18T11:45:31;6.60;0.40;0.00
49343;PMS5003;35210;41.606;-87.602;2022-12-18T11:48:03;1.00;1.00;0.00
49343;PMS5003;35210;41.606;-87.602;2022-12-18T11:50:40;4.00;4.00;1.00
49343;PMS5003;35210;41.606;-87.602;2022-12-18T11:53:14;1.40;1.00;0.00
49343;PMS5003;35210;41.606;-87.602;2022-12-18T11:55:44;2.60;1.40;1.00
49343;PMS5003;35210;41.606;-87.602;2022-12-18T11:58:36;4.40;3.00;1.00
49343;PMS5003;35210;41.606;-87.602;2022-12-18T12:01:30;4.40;3.60;0.60
49343;PMS5003;35210;41.606;-87.602;2022-12-18T12:04:14;1.00;1.00;1.00
49343;PMS5003;35210;41.606;-87.602;2022-12-18T12:06:56;3.40;3.40;3.00
49343;PMS5003;35210;41.606;-87.602;2022-12-18T12:09:35;3.00;3.00;1.00
49343;PMS5003;35210;41.606;-87.602;2022-12-18T12:12:18;2.60;0.60;0.20
49343;PMS5003;35210;41.606;-87.602;2022-12-18T12:15:13;3.20;1.40;1.00
49343;PMS5003;35210;41.606;-87.602;2022-12-18T12:17:53;2.20;2.20;0.20
49343;PMS5003;35210;41.606;-87.602;2022-12-18T12:20:32;3.00;3.00;1.80
49343;PMS5003;35210;41.606;-87.602;2022-12-18T12:23:16;4.00;4.00;1.00
49343;PMS5003;35210;41.606;-87.602;2022-12-18T12:25:51;1.40;1.40;0.20
49343;PMS5003;35210;41.606;-87.602;2022-12-18T12:28:28;3.00;3.00;1.00
49343;PMS5003;35210;41.606;-87.602;2022-12-18T12:31:11;3.00;3.00;1.00
49343;PMS5003;35210;41.606;-87.602;2022-12-18T12:33:54;0.00;0.00;0.00
49343;PMS5003;35210;41.606;-87.602;2022-12-18T12:36:34;2.60;1.00;1.00
49343;PMS5003;35210;41.606;-87.602;2022-12-18T12:39:17;2.60;2.60;1.00
49343;PMS5003;35210;41.606;-87.602;2022-12-18T12:41:49;6.40;3.00;1.00
49343;PMS5003;35210;41.606;-87.602;2022-12-18T12:44:39;4.80;3.00;1.00
49343;PMS5003;35210;41.606;-87.602;2022-12-18T12:47:12;3.00;1.00;0.00
49343;PMS5003;35210;41.606;-87.602;2022-12-18T12:49:45;4.40;2.20;1.00
49343;PMS5003;35210;41.606;-87.602;2022-12-18T12:52:16;4.00;2.20;1.00
49343;PMS5003;35210;41.606;-87.602;2022-12-18T12:54:51;5.60;1.80;1.00
49343;PMS5003;35210;41.606;-87.602;2022-12-18T12:57:21;3.00;3.00;3.00
49343;PMS5003;35210;41.606;-87.602;2022-12-18T12:59:57;4.40;3.00;1.00
49343;PMS5003;35210;41.606;-87.602;2022-12-18T13:02:33;5.40;2.60;1.00
49343;PMS5003;35210;41.606;-87.602;2022-12-18T13:05:09;5.20;2.60;1.80
49343;PMS5003;35210;41.606;-87.602;2022-12-18T13:07:47;3.60;2.20;1.00
49343;PMS5003;35210;41.606;-87.602;2022-12-18T13:10:24;4.80;3.00;1.00
49343;PMS5003;35210;41.606;-87.602;2022-12-18T13:13:04;3.20;3.00;1.00
49343;PMS5003;35210;41.606;-87.602;2022-12-18T13:15:39;3.40;1.00;1.00
49343;PMS5003;35210;41.606;-87.602;2022-12-18T13:18:13;3.00;3.00;0.20
49343;PMS5003;35210;41.606;-87.602;2022-12-18T13:20:47;2.60;1.00;1.00
49343;PMS5003;35210;41.606;-87.602;2022-12-18T13:23:28;11.20;2.60;1.00
49343;PMS5003;35210;41.606;-87.602;2022-12-18T13:25:59;3.80;1.40;1.00
49343;PMS5003;35210;41.606;-87.602;2022-12-18T13:28:51;4.00;1.00;0.20
49343;PMS5003;35210;41.606;-87.602;2022-12-18T13:34:25;4.00;3.20;1.40
49343;PMS5003;35210;41.606;-87.602;2022-12-18T13:37:35;3.00;1.00;1.00
49343;PMS5003;35210;41.606;-87.602;2022-12-18T13:43:28;9.40;9.00;3.00
49343;PMS5003;35210;41.606;-87.602;2022-12-18T13:46:04;3.60;3.00;1.00
49343;PMS5003;35210;41.606;-87.602;2022-12-18T13:48:49;3.20;3.20;1.00
49343;PMS5003;35210;41.606;-87.602;2022-12-18T13:51:21;0.80;0.40;0.00
49343;PMS5003;35210;41.606;-87.602;2022-12-18T13:53:54;1.00;1.00;0.40
49343;PMS5003;35210;41.606;-87.602;2022-12-18T13:56:27;1.00;0.00;0.00
49343;PMS5003;35210;41.606;-87.602;2022-12-18T13:59:05;3.80;3.00;1.00
49343;PMS5003;35210;41.606;-87.602;2022-12-18T14:01:46;1.00;1.00;1.00
49343;PMS5003;35210;41.606;-87.602;2022-12-18T14:04:21;6.00;3.40;1.00
49343;PMS5003;35210;41.606;-87.602;2022-12-18T14:06:52;1.40;1.00;0.80
49343;PMS5003;35210;41.606;-87.602;2022-12-18T14:09:27;3.40;0.60;0.00
49343;PMS5003;35210;41.606;-87.602;2022-12-18T14:11:58;5.20;1.40;0.00
49343;PMS5003;35210;41.606;-87.602;2022-12-18T14:14:45;4.00;3.00;1.00
49343;PMS5003;35210;41.606;-87.602;2022-12-18T14:17:15;0.60;0.60;0.00
49343;PMS5003;35210;41.606;-87.602;2022-12-18T14:19:44;2.60;2.20;1.00
49343;PMS5003;35210;41.606;-87.602;2022-12-18T14:22:16;3.80;3.80;3.00
49343;PMS5003;35210;41.606;-87.602;2022-12-18T14:25:04;4.80;2.20;1.00
49343;PMS5003;35210;41.606;-87.602;2022-12-18T14:27:42;6.20;3.00;1.00
49343;PMS5003;35210;41.606;-87.602;2022-12-18T14:33:00;1.00;1.00;0.00
49343;PMS5003;35210;41.606;-87.602;2022-12-18T14:35:32;3.80;1.00;0.80
49343;PMS5003;35210;41.606;-87.602;2022-12-18T14:38:10;6.00;3.00;1.00
49343;PMS5003;35210;41.606;-87.602;2022-12-18T14:40:50;3.00;1.00;0.00